createdAt,value
2018-10-18T00:00:06.977Z,49.47
2018-10-18T00:02:36.438Z,49.30
2018-10-18T00:05:07.559Z,46.83
2018-10-18T00:07:36.910Z,50.53
2018-10-18T00:10:07.833Z,48.93
2018-10-18T00:12:37.389Z,51.00
2018-10-18T00:15:07.952Z,50.77
2018-10-18T00:17:42.471Z,51.00
2018-10-18T00:20:11.908Z,51.27
2018-10-18T00:22:41.313Z,52.00
2018-10-18T00:25:10.699Z,52.23
2018-10-18T00:27:40.474Z,52.47
2018-10-18T00:30:12.502Z,49.60
2018-10-18T00:32:42.614Z,52.90
2018-10-18T00:35:12.256Z,48.57
2018-10-18T00:37:41.604Z,48.37
2018-10-18T00:40:12.054Z,54.20
2018-10-18T00:42:42.026Z,50.30
2018-10-18T00:45:11.666Z,51.60
2018-10-18T00:47:41.032Z,52.97
2018-10-18T00:50:11.624Z,53.30
2018-10-18T00:52:41.130Z,52.07
2018-10-18T00:55:11.432Z,52.10
2018-10-18T00:57:41.583Z,51.13
2018-10-18T01:00:11.901Z,54.40
2018-10-18T01:02:41.183Z,53.90
2018-10-18T01:05:10.539Z,54.40
2018-10-18T01:07:39.930Z,51.90
2018-10-18T01:10:09.306Z,55.13
2018-10-18T01:12:38.745Z,50.70
2018-10-18T01:15:08.782Z,50.00
2018-10-18T01:17:38.162Z,52.27
2018-10-18T01:20:07.606Z,53.47
2018-10-18T01:22:36.952Z,51.50
2018-10-18T01:25:07.214Z,53.50
2018-10-18T01:27:36.595Z,54.90
2018-10-18T01:30:07.107Z,52.50
2018-10-18T01:32:36.594Z,51.63
2018-10-18T01:35:06.658Z,51.67
2018-10-18T01:37:36.066Z,53.60
2018-10-18T01:40:05.730Z,51.13
2018-10-18T01:42:35.126Z,55.33
2018-10-18T01:45:04.787Z,52.20
2018-10-18T01:47:34.215Z,54.80
2018-10-18T01:50:03.647Z,52.87
2018-10-18T01:52:33.114Z,53.97
2018-10-18T01:55:02.714Z,52.83
2018-10-18T01:57:32.225Z,54.13
2018-10-18T02:00:01.874Z,54.40
2018-10-18T02:02:31.525Z,51.03
2018-10-18T02:05:01.113Z,55.77
2018-10-18T02:07:30.632Z,55.27
2018-10-18T02:10:00.244Z,53.37
2018-10-18T02:12:29.842Z,54.17
2018-10-18T02:14:59.369Z,50.57
2018-10-18T02:17:29.810Z,55.63
2018-10-18T02:19:59.318Z,51.23
2018-10-18T02:22:28.833Z,52.83
2018-10-18T02:24:58.511Z,54.93
2018-10-18T02:27:28.050Z,53.00
2018-10-18T02:29:57.598Z,55.17
2018-10-18T02:32:27.161Z,51.30
2018-10-18T02:34:56.684Z,53.23
2018-10-18T02:37:26.221Z,52.80
2018-10-18T02:39:55.836Z,53.17
2018-10-18T02:42:25.342Z,54.30
2018-10-18T02:44:54.881Z,52.27
2018-10-18T02:47:24.417Z,51.70
2018-10-18T02:49:54.037Z,58.80
2018-10-18T02:52:23.561Z,56.40
2018-10-18T02:54:53.272Z,55.63
2018-10-18T02:57:22.775Z,57.20
2018-10-18T02:59:52.331Z,54.70
2018-10-18T03:02:21.873Z,56.90
2018-10-18T03:04:51.385Z,57.07
2018-10-18T03:07:20.934Z,54.70
2018-10-18T03:09:50.592Z,58.30
2018-10-18T03:12:20.235Z,56.47
2018-10-18T03:14:49.744Z,57.37
2018-10-18T03:17:19.325Z,58.20
2018-10-18T03:19:48.916Z,58.07
2018-10-18T03:22:18.538Z,55.87
2018-10-18T03:24:48.064Z,55.30
2018-10-18T03:27:17.651Z,56.03
2018-10-18T03:29:47.233Z,54.67
2018-10-18T03:32:16.762Z,55.27
2018-10-18T03:34:46.300Z,55.10
2018-10-18T03:37:15.832Z,59.13
2018-10-18T03:39:45.403Z,54.87
2018-10-18T03:42:15.060Z,55.43
2018-10-18T03:44:44.489Z,54.97
2018-10-18T03:47:14.229Z,54.87
2018-10-18T03:49:43.812Z,55.40
2018-10-18T03:52:13.427Z,57.20
2018-10-18T03:54:43.058Z,54.20
2018-10-18T03:57:12.600Z,52.60
2018-10-18T03:59:42.238Z,56.20
2018-10-18T04:02:11.768Z,54.30
2018-10-18T04:04:41.258Z,53.73
2018-10-18T04:07:11.075Z,54.00
2018-10-18T04:09:40.806Z,54.00
2018-10-18T04:12:10.406Z,57.57
2018-10-18T04:14:39.921Z,56.07
2018-10-18T04:17:09.653Z,55.87
2018-10-18T04:19:39.211Z,52.47
2018-10-18T04:22:08.749Z,55.50
2018-10-18T04:24:38.299Z,56.67
2018-10-18T04:27:07.916Z,51.73
2018-10-18T04:29:37.524Z,52.50
2018-10-18T04:32:07.601Z,55.60
2018-10-18T04:34:37.331Z,55.77
2018-10-18T04:37:06.964Z,56.60
2018-10-18T04:39:36.684Z,56.20
2018-10-18T04:42:06.568Z,55.53
2018-10-18T04:44:36.222Z,55.03
2018-10-18T04:47:06.950Z,57.83
2018-10-18T04:49:36.496Z,57.73
2018-10-18T04:52:06.508Z,52.90
2018-10-18T04:54:36.097Z,53.10
2018-10-18T04:57:06.200Z,54.63
2018-10-18T04:59:35.840Z,52.80
2018-10-18T05:02:05.866Z,53.67
2018-10-18T05:04:35.385Z,53.30
2018-10-18T05:07:05.117Z,54.07
2018-10-18T05:09:34.644Z,55.00
2018-10-18T05:12:04.146Z,54.83
2018-10-18T05:14:33.684Z,51.07
2018-10-18T05:17:03.276Z,52.80
2018-10-18T05:19:32.797Z,54.17
2018-10-18T05:22:02.333Z,54.00
2018-10-18T05:24:31.913Z,52.33
2018-10-18T05:27:01.484Z,53.80
2018-10-18T05:29:31.050Z,94.23
2018-10-18T05:32:00.821Z,55.77
2018-10-18T05:34:30.453Z,55.50
2018-10-18T05:37:00.102Z,56.50
2018-10-18T05:39:29.684Z,55.20
2018-10-18T05:41:59.229Z,57.47
2018-10-18T05:44:28.823Z,57.10
2018-10-18T05:46:58.775Z,54.50
2018-10-18T05:49:28.424Z,55.27
2018-10-18T05:51:58.002Z,55.40
2018-10-18T05:54:28.467Z,52.57
2018-10-18T05:56:58.166Z,54.20
2018-10-18T05:59:28.204Z,52.70
2018-10-18T06:01:57.852Z,56.80
2018-10-18T06:04:27.476Z,52.20
2018-10-18T06:06:57.306Z,55.50
2018-10-18T06:09:32.567Z,56.73
2018-10-18T06:12:02.203Z,55.40
2018-10-18T06:14:31.971Z,54.67
2018-10-18T06:17:01.650Z,49.13
2018-10-18T06:19:31.277Z,51.37
2018-10-18T06:22:00.981Z,46.80
2018-10-18T06:24:30.701Z,49.47
2018-10-18T06:27:00.396Z,49.30
2018-10-18T06:29:30.206Z,48.43
2018-10-18T06:31:59.917Z,49.63
2018-10-18T06:34:29.545Z,46.60
2018-10-18T06:36:59.231Z,50.50
2018-10-18T06:39:28.887Z,45.10
2018-10-18T06:41:58.452Z,44.67
2018-10-18T06:44:28.109Z,46.40
2018-10-18T06:46:57.782Z,46.80
2018-10-18T06:49:27.345Z,45.63
2018-10-18T06:51:56.946Z,44.50
2018-10-18T06:54:26.595Z,48.23
2018-10-18T06:56:56.273Z,49.80
2018-10-18T06:59:25.892Z,46.63
2018-10-18T07:01:55.468Z,49.37
2018-10-18T07:04:25.098Z,47.40
2018-10-18T07:06:54.732Z,45.90
2018-10-18T07:09:24.392Z,47.37
2018-10-18T07:11:54.033Z,42.60
2018-10-18T07:14:23.653Z,45.77
2018-10-18T07:16:53.305Z,47.73
2018-10-18T07:19:22.929Z,46.20
2018-10-18T07:21:52.573Z,47.93
2018-10-18T07:24:22.340Z,48.87
2018-10-18T07:26:52.132Z,48.47
2018-10-18T07:29:21.725Z,48.53
2018-10-18T07:31:51.370Z,47.97
2018-10-18T07:34:20.976Z,53.03
2018-10-18T07:36:50.653Z,49.80
2018-10-18T07:39:20.260Z,52.07
2018-10-18T07:41:49.868Z,50.63
2018-10-18T07:44:19.489Z,53.10
2018-10-18T07:46:49.165Z,54.40
2018-10-18T07:49:18.741Z,56.37
2018-10-18T07:51:48.444Z,56.30
2018-10-18T07:54:18.164Z,55.83
2018-10-18T07:56:47.699Z,51.90
2018-10-18T07:59:17.302Z,54.20
2018-10-18T08:01:46.932Z,56.97
2018-10-18T08:04:16.522Z,57.13
2018-10-18T08:06:46.144Z,57.80
2018-10-18T08:09:15.770Z,57.93
2018-10-18T08:11:45.361Z,56.90
2018-10-18T08:14:15.000Z,54.53
2018-10-18T08:16:44.676Z,55.47
2018-10-18T08:19:14.332Z,55.30
2018-10-18T08:21:43.901Z,55.03
2018-10-18T08:24:13.508Z,53.77
2018-10-18T08:26:43.173Z,52.07
2018-10-18T08:29:13.098Z,53.03
2018-10-18T08:31:42.737Z,53.00
2018-10-18T08:34:12.345Z,52.60
2018-10-18T08:36:42.012Z,53.30
2018-10-18T08:39:12.524Z,53.63
2018-10-18T08:41:42.117Z,50.20
2018-10-18T08:44:11.735Z,53.10
2018-10-18T08:46:41.388Z,52.63
2018-10-18T08:49:11.248Z,51.77
2018-10-18T08:51:40.895Z,50.97
2018-10-18T08:54:10.536Z,49.80
2018-10-18T08:56:40.162Z,47.10
2018-10-18T08:59:09.843Z,50.00
2018-10-18T09:01:39.732Z,46.57
2018-10-18T09:04:09.379Z,49.70
2018-10-18T09:06:39.204Z,49.20
2018-10-18T09:09:09.840Z,50.13
2018-10-18T09:11:39.548Z,51.43
2018-10-18T09:14:09.181Z,49.47
2018-10-18T09:16:38.817Z,48.50
2018-10-18T09:19:08.519Z,48.90
2018-10-18T09:21:38.109Z,48.90
2018-10-18T09:24:07.808Z,49.43
2018-10-18T09:26:37.498Z,48.40
2018-10-18T09:29:07.169Z,50.07
2018-10-18T09:31:36.756Z,49.67
2018-10-18T09:34:06.845Z,49.20
2018-10-18T09:36:36.433Z,46.97
2018-10-18T09:39:08.251Z,50.00
2018-10-18T09:41:37.826Z,50.57
2018-10-18T09:44:07.789Z,52.40
2018-10-18T09:46:37.800Z,49.80
2018-10-18T09:49:07.519Z,47.20
2018-10-18T09:51:37.119Z,48.90
2018-10-18T09:54:07.511Z,48.33
2018-10-18T09:56:37.091Z,45.47
2018-10-18T09:59:06.927Z,45.07
2018-10-18T10:01:41.652Z,45.47
2018-10-18T10:04:11.398Z,48.00
2018-10-18T10:06:41.033Z,44.57
2018-10-18T10:09:10.672Z,46.07
2018-10-18T10:11:40.364Z,49.97
2018-10-18T10:14:09.937Z,47.20
2018-10-18T10:16:39.540Z,46.33
2018-10-18T10:19:09.180Z,47.57
2018-10-18T10:21:38.791Z,51.20
2018-10-18T10:24:08.425Z,53.87
2018-10-18T10:26:38.069Z,50.30
2018-10-18T10:29:07.853Z,51.90
2018-10-18T10:31:37.456Z,54.50
2018-10-18T10:34:07.148Z,54.57
2018-10-18T10:36:36.747Z,54.90
2018-10-18T10:39:08.511Z,52.57
2018-10-18T10:41:38.115Z,50.30
2018-10-18T10:44:09.158Z,51.37
2018-10-18T10:46:40.357Z,51.70
2018-10-18T10:49:10.505Z,50.40
2018-10-18T10:51:40.056Z,50.00
2018-10-18T10:54:10.254Z,48.60
2018-10-18T10:56:39.828Z,45.57
2018-10-18T10:59:18.681Z,45.10
2018-10-18T11:01:48.399Z,44.90
2018-10-18T11:04:17.964Z,41.80
2018-10-18T11:06:47.569Z,42.47
2018-10-18T11:09:17.211Z,43.07
2018-10-18T11:11:46.828Z,44.37
2018-10-18T11:14:16.482Z,43.00
2018-10-18T11:16:46.033Z,41.90
2018-10-18T11:19:15.611Z,42.07
2018-10-18T11:21:45.261Z,43.70
2018-10-18T11:24:14.864Z,38.87
2018-10-18T11:26:44.461Z,42.87
2018-10-18T11:29:14.040Z,40.37
2018-10-18T11:31:43.636Z,37.55
2018-10-18T11:34:13.292Z,40.98
2018-10-18T11:36:42.878Z,43.80
2018-10-18T11:39:12.477Z,41.50
2018-10-18T11:41:42.173Z,43.23
2018-10-18T11:44:11.860Z,40.93
2018-10-18T11:46:41.409Z,43.07
2018-10-18T11:49:11.143Z,41.25
2018-10-18T11:51:40.974Z,44.97
2018-10-18T11:54:10.586Z,43.20
2018-10-18T11:56:40.234Z,41.80
2018-10-18T11:59:09.915Z,44.10
2018-10-18T12:01:39.483Z,43.10
2018-10-18T12:04:09.153Z,42.63
2018-10-18T12:06:38.732Z,44.80
2018-10-18T12:09:10.853Z,43.03
2018-10-18T12:11:40.433Z,43.60
2018-10-18T12:14:10.310Z,43.50
2018-10-18T12:16:39.826Z,45.00
2018-10-18T12:19:09.608Z,44.93
2018-10-18T12:21:39.170Z,42.20
2018-10-18T12:24:08.797Z,43.73
2018-10-18T12:26:38.419Z,45.00
2018-10-18T12:29:08.095Z,49.83
2018-10-18T12:31:37.620Z,47.90
2018-10-18T12:34:07.314Z,45.33
2018-10-18T12:36:36.902Z,45.00
2018-10-18T12:39:09.080Z,44.37
2018-10-18T12:41:38.877Z,44.60
2018-10-18T12:44:08.414Z,55.87
2018-10-18T12:46:37.988Z,46.93
2018-10-18T12:49:07.617Z,60.47
2018-10-18T12:51:37.176Z,48.97
2018-10-18T12:54:07.654Z,59.87
2018-10-18T12:56:37.234Z,48.63
2018-10-18T12:59:07.040Z,44.23
2018-10-18T13:01:36.628Z,42.10
2018-10-18T13:04:06.229Z,44.50
2018-10-18T13:06:35.819Z,43.53
2018-10-18T13:09:08.159Z,42.03
2018-10-18T13:11:37.748Z,48.07
2018-10-18T13:14:07.608Z,44.17
2018-10-18T13:16:37.268Z,46.67
2018-10-18T13:19:07.260Z,45.67
2018-10-18T13:21:37.030Z,61.20
2018-10-18T13:24:06.843Z,60.70
2018-10-18T13:26:37.478Z,50.13
2018-10-18T13:29:08.009Z,48.70
2018-10-18T13:31:38.390Z,56.40
2018-10-18T13:34:08.823Z,47.30
2018-10-18T13:36:38.925Z,46.50
2018-10-18T13:39:11.412Z,45.87
2018-10-18T13:41:41.534Z,46.50
2018-10-18T13:44:11.946Z,47.30
2018-10-18T13:46:41.678Z,44.67
2018-10-18T13:49:11.637Z,42.90
2018-10-18T13:51:41.595Z,43.63
2018-10-18T13:54:11.677Z,45.73
2018-10-18T13:56:41.577Z,47.75
2018-10-18T13:59:28.412Z,44.80
2018-10-18T14:01:58.261Z,43.20
2018-10-18T14:04:28.360Z,43.03
2018-10-18T14:06:58.371Z,41.03
2018-10-18T14:09:28.410Z,44.83
2018-10-18T14:11:58.457Z,44.67
2018-10-18T14:14:28.725Z,42.80
2018-10-18T14:16:58.858Z,46.90
2018-10-18T14:19:28.577Z,39.53
2018-10-18T14:21:58.682Z,41.07
2018-10-18T14:24:28.787Z,42.23
2018-10-18T14:26:58.734Z,41.47
2018-10-18T14:29:28.944Z,44.57
2018-10-18T14:31:58.845Z,42.20
2018-10-18T14:34:28.803Z,41.10
2018-10-18T14:36:58.975Z,45.13
2018-10-18T14:39:28.833Z,41.87
2018-10-18T14:41:58.561Z,42.63
2018-10-18T14:44:28.330Z,42.27
2018-10-18T14:46:58.015Z,45.23
2018-10-18T14:49:27.916Z,43.47
2018-10-18T14:51:57.951Z,44.53
2018-10-18T14:54:27.859Z,44.00
2018-10-18T14:56:57.801Z,42.10
2018-10-18T14:59:27.761Z,46.40
2018-10-18T15:01:57.772Z,42.13
2018-10-18T15:04:27.698Z,43.10
2018-10-18T15:06:57.577Z,42.10
2018-10-18T15:09:27.553Z,44.30
2018-10-18T15:11:58.934Z,42.80
2018-10-18T15:14:29.081Z,43.60
2018-10-18T15:16:59.481Z,40.80
2018-10-18T15:19:31.251Z,42.97
2018-10-18T15:22:01.845Z,43.10
2018-10-18T15:24:32.149Z,44.63
2018-10-18T15:27:01.968Z,42.00
2018-10-18T15:29:31.575Z,42.53
2018-10-18T15:32:01.238Z,43.57
2018-10-18T15:34:30.870Z,43.67
2018-10-18T15:37:00.958Z,44.50
2018-10-18T15:39:30.815Z,41.27
2018-10-18T15:42:00.361Z,42.43
2018-10-18T15:44:30.185Z,42.07
2018-10-18T15:46:59.809Z,42.77
2018-10-18T15:49:29.520Z,41.23
2018-10-18T15:51:59.161Z,43.57
2018-10-18T15:54:28.944Z,43.33
2018-10-18T15:56:58.547Z,44.23
2018-10-18T15:59:28.296Z,39.53
2018-10-18T16:01:57.901Z,40.50
2018-10-18T16:04:27.485Z,39.40
2018-10-18T16:06:57.088Z,40.10
2018-10-18T16:09:27.729Z,39.37
2018-10-18T16:11:57.288Z,42.97
2018-10-18T16:14:26.897Z,41.53
2018-10-18T16:16:57.415Z,41.23
2018-10-18T16:19:28.547Z,40.60
2018-10-18T16:21:58.165Z,43.77
2018-10-18T16:24:27.766Z,43.43
2018-10-18T16:26:57.376Z,43.43
2018-10-18T16:29:27.590Z,43.13
2018-10-18T16:31:57.221Z,41.27
2018-10-18T16:34:26.891Z,43.30
2018-10-18T16:36:56.493Z,173.90
2018-10-18T16:39:26.095Z,56.80
2018-10-18T16:41:55.821Z,45.70
2018-10-18T16:44:25.465Z,41.20
2018-10-18T16:46:55.072Z,44.30
2018-10-18T16:49:24.697Z,40.43
2018-10-18T16:51:54.292Z,40.50
2018-10-18T16:54:23.910Z,42.57
2018-10-18T16:56:53.530Z,40.50
2018-10-18T16:59:23.170Z,43.33
2018-10-18T17:01:52.804Z,42.17
2018-10-18T17:04:22.578Z,38.70
2018-10-18T17:06:52.173Z,36.67
2018-10-18T17:09:21.858Z,36.83
2018-10-18T17:11:51.587Z,131.57
2018-10-18T17:14:21.215Z,32.33
2018-10-18T17:16:50.850Z,28.47
2018-10-18T17:19:20.482Z,27.70
2018-10-18T17:21:50.153Z,24.20
2018-10-18T17:24:19.741Z,25.57
2018-10-18T17:26:49.445Z,23.40
2018-10-18T17:29:19.357Z,22.40
2018-10-18T17:31:49.112Z,20.77
2018-10-18T17:34:18.874Z,19.03
2018-10-18T17:36:48.498Z,18.10
2018-10-18T17:39:18.547Z,18.33
2018-10-18T17:41:48.186Z,18.07
2018-10-18T17:44:18.010Z,17.07
2018-10-18T17:46:47.684Z,17.43
2018-10-18T17:49:17.429Z,27.00
2018-10-18T17:51:47.047Z,23.40
2018-10-18T17:54:16.793Z,21.73
2018-10-18T17:56:46.306Z,22.73
2018-10-18T17:59:15.928Z,24.73
2018-10-18T18:01:46.025Z,23.80
2018-10-18T18:04:15.698Z,25.00
2018-10-18T18:06:45.358Z,26.10
2018-10-18T18:09:15.003Z,24.87
2018-10-18T18:11:44.634Z,26.67
2018-10-18T18:14:14.224Z,26.20
2018-10-18T18:16:43.837Z,23.57
2018-10-18T18:19:13.413Z,24.03
2018-10-18T18:21:43.021Z,24.70
2018-10-18T18:24:12.611Z,22.30
2018-10-18T18:26:45.786Z,22.63
2018-10-18T18:29:11.882Z,22.57
2018-10-18T18:31:41.482Z,22.80
2018-10-18T18:34:11.019Z,22.77
2018-10-18T18:36:40.650Z,21.90
2018-10-18T18:39:11.373Z,23.37
2018-10-18T18:41:41.022Z,23.13
2018-10-18T18:44:10.553Z,23.20
2018-10-18T18:46:40.126Z,21.03
2018-10-18T18:49:09.657Z,23.03
2018-10-18T18:51:39.967Z,23.97
2018-10-18T18:54:09.882Z,23.80
2018-10-18T18:56:40.439Z,22.77
2018-10-18T18:59:10.161Z,21.63
2018-10-18T19:01:39.806Z,19.10
2018-10-18T19:04:09.372Z,21.17
2018-10-18T19:06:38.975Z,20.80
2018-10-18T19:09:10.095Z,27.40
2018-10-18T19:11:39.960Z,24.67
2018-10-18T19:14:09.985Z,20.00
2018-10-18T19:16:39.635Z,20.10
2018-10-18T19:19:09.230Z,18.40
2018-10-18T19:21:38.793Z,16.97
2018-10-18T19:24:08.420Z,15.93
2018-10-18T19:26:38.145Z,17.83
2018-10-18T19:29:08.011Z,14.43
2018-10-18T19:31:39.455Z,10.97
2018-10-18T19:34:09.178Z,11.83
2018-10-18T19:36:38.765Z,11.63
2018-10-18T19:39:09.509Z,11.90
2018-10-18T19:41:39.218Z,11.00
2018-10-18T19:44:08.757Z,11.47
2018-10-18T19:46:38.330Z,10.00
2018-10-18T19:49:07.862Z,8.90
2018-10-18T19:51:37.590Z,9.87
2018-10-18T19:54:07.149Z,9.00
2018-10-18T19:56:36.715Z,7.97
2018-10-18T19:59:06.377Z,7.63
2018-10-18T20:01:35.932Z,8.33
2018-10-18T20:04:05.880Z,10.10
2018-10-18T20:06:35.441Z,8.33
2018-10-18T20:09:08.139Z,7.90
2018-10-18T20:11:37.701Z,8.23
2018-10-18T20:14:07.374Z,8.40
2018-10-18T20:16:36.978Z,7.60
2018-10-18T20:19:07.068Z,8.50
2018-10-18T20:21:36.675Z,7.93
2018-10-18T20:24:07.042Z,7.23
2018-10-18T20:26:36.725Z,8.17
2018-10-18T20:29:06.324Z,7.90
2018-10-18T20:31:36.181Z,8.00
2018-10-18T20:34:06.259Z,8.23
2018-10-18T20:36:35.816Z,7.77
2018-10-18T20:39:08.181Z,7.67
2018-10-18T20:41:37.742Z,8.20
2018-10-18T20:44:07.645Z,8.40
2018-10-18T20:46:37.259Z,7.93
2018-10-18T20:49:07.215Z,6.73
2018-10-18T20:51:36.800Z,7.97
2018-10-18T20:54:06.915Z,9.43
2018-10-18T20:56:36.485Z,7.60
2018-10-18T20:59:06.139Z,6.83
2018-10-18T21:01:35.733Z,8.23
2018-10-18T21:04:05.382Z,6.00
2018-10-18T21:06:35.075Z,5.93
2018-10-18T21:09:06.270Z,7.23
2018-10-18T21:11:35.758Z,7.90
2018-10-18T21:14:05.510Z,5.53
2018-10-18T21:16:35.104Z,5.90
2018-10-18T21:19:04.734Z,4.90
2018-10-18T21:21:34.921Z,5.00
2018-10-18T21:24:04.637Z,5.50
2018-10-18T21:26:34.212Z,4.67
2018-10-18T21:29:03.894Z,6.00
2018-10-18T21:31:33.369Z,5.30
2018-10-18T21:34:02.958Z,4.50
2018-10-18T21:36:32.517Z,4.77
2018-10-18T21:39:02.039Z,4.37
2018-10-18T21:41:31.581Z,4.10
2018-10-18T21:44:01.199Z,3.33
2018-10-18T21:46:30.778Z,3.90
2018-10-18T21:49:00.594Z,4.77
2018-10-18T21:51:30.018Z,3.73
2018-10-18T21:53:59.669Z,3.10
2018-10-18T21:56:29.246Z,3.17
2018-10-18T21:58:58.805Z,2.83
2018-10-18T22:01:28.417Z,2.70
2018-10-18T22:03:57.921Z,3.67
2018-10-18T22:06:27.585Z,2.97
2018-10-18T22:08:57.153Z,3.20
2018-10-18T22:11:26.714Z,2.20
2018-10-18T22:13:56.243Z,2.80
2018-10-18T22:16:25.831Z,3.40
2018-10-18T22:18:55.879Z,2.97
2018-10-18T22:21:25.518Z,2.50
2018-10-18T22:23:55.049Z,2.90
2018-10-18T22:26:24.837Z,2.53
2018-10-18T22:28:54.395Z,3.10
2018-10-18T22:31:24.078Z,2.83
2018-10-18T22:33:53.613Z,3.30
2018-10-18T22:36:23.733Z,3.30
2018-10-18T22:38:53.555Z,2.53
2018-10-18T22:41:23.304Z,2.47
2018-10-18T22:43:52.871Z,2.37
2018-10-18T22:46:22.379Z,2.87
2018-10-18T22:48:52.010Z,3.00
2018-10-18T22:51:21.550Z,2.43
2018-10-18T22:53:51.081Z,2.07
2018-10-18T22:56:20.617Z,2.13
2018-10-18T22:58:50.175Z,2.60
2018-10-18T23:01:19.728Z,1.77
2018-10-18T23:03:49.264Z,2.97
2018-10-18T23:06:18.805Z,2.70
2018-10-18T23:08:48.372Z,2.30
2018-10-18T23:11:17.892Z,2.00
2018-10-18T23:13:47.440Z,2.10
2018-10-18T23:16:16.992Z,2.03
2018-10-18T23:18:46.584Z,2.90
2018-10-18T23:21:16.236Z,2.40
2018-10-18T23:23:45.738Z,4.30
2018-10-18T23:26:15.328Z,3.17
2018-10-18T23:28:44.873Z,2.97
2018-10-18T23:31:14.392Z,2.63
2018-10-18T23:33:44.058Z,2.60
2018-10-18T23:36:13.563Z,2.80
2018-10-18T23:38:43.128Z,2.53
2018-10-18T23:41:12.724Z,2.23
2018-10-18T23:43:42.216Z,2.97
2018-10-18T23:46:11.786Z,2.40
2018-10-18T23:48:41.445Z,2.77
2018-10-18T23:51:11.068Z,3.23
2018-10-18T23:53:40.802Z,2.50
2018-10-18T23:56:10.427Z,2.70
2018-10-18T23:58:40.016Z,2.60
